sensor_id;sensor_type;location;lat;lon;timestamp;temperature;humidity
48936;DHT22;34745;52.276;10.528;2023-04-01T00:02:27;10.50;99.90
48936;DHT22;34745;52.276;10.528;2023-04-01T00:04:55;10.50;99.90
48936;DHT22;34745;52.276;10.528;2023-04-01T00:07:23;10.40;99.90
48936;DHT22;34745;52.276;10.528;2023-04-01T00:09:56;10.50;99.90
48936;DHT22;34745;52.276;10.528;2023-04-01T00:12:23;10.50;99.90
48936;DHT22;34745;52.276;10.528;2023-04-01T00:14:51;10.40;99.90
48936;DHT22;34745;52.276;10.528;2023-04-01T00:17:19;10.40;99.90
48936;DHT22;34745;52.276;10.528;2023-04-01T00:19:46;10.40;99.90
48936;DHT22;34745;52.276;10.528;2023-04-01T00:22:15;10.40;99.90
48936;DHT22;34745;52.276;10.528;2023-04-01T00:24:42;10.40;99.90
48936;DHT22;34745;52.276;10.528;2023-04-01T00:27:09;10.40;99.90
48936;DHT22;34745;52.276;10.528;2023-04-01T00:29:36;10.40;99.90
48936;DHT22;34745;52.276;10.528;2023-04-01T00:32:04;10.40;99.90
48936;DHT22;34745;52.276;10.528;2023-04-01T00:34:31;10.40;99.90
48936;DHT22;34745;52.276;10.528;2023-04-01T00:36:58;10.40;99.90
48936;DHT22;34745;52.276;10.528;2023-04-01T00:39:28;10.40;99.90
48936;DHT22;34745;52.276;10.528;2023-04-01T00:41:56;10.40;99.90
48936;DHT22;34745;52.276;10.528;2023-04-01T00:44:25;10.50;99.90
48936;DHT22;34745;52.276;10.528;2023-04-01T00:46:53;10.40;99.90
48936;DHT22;34745;52.276;10.528;2023-04-01T00:49:25;10.50;99.90
48936;DHT22;34745;52.276;10.528;2023-04-01T00:51:54;10.60;99.90
48936;DHT22;34745;52.276;10.528;2023-04-01T00:54:24;10.60;99.90
48936;DHT22;34745;52.276;10.528;2023-04-01T00:56:55;10.60;99.90
48936;DHT22;34745;52.276;10.528;2023-04-01T00:59:26;10.60;99.90
48936;DHT22;34745;52.276;10.528;2023-04-01T01:01:54;10.60;99.90
48936;DHT22;34745;52.276;10.528;2023-04-01T01:04:23;10.70;99.90
48936;DHT22;34745;52.276;10.528;2023-04-01T01:06:57;10.60;99.90
48936;DHT22;34745;52.276;10.528;2023-04-01T01:09:38;10.70;99.90
48936;DHT22;34745;52.276;10.528;2023-04-01T01:12:11;10.70;99.90
48936;DHT22;34745;52.276;10.528;2023-04-01T01:14:48;10.70;99.90
48936;DHT22;34745;52.276;10.528;2023-04-01T01:17:22;10.70;99.90
48936;DHT22;34745;52.276;10.528;2023-04-01T01:20:10;10.60;99.90
48936;DHT22;34745;52.276;10.528;2023-04-01T01:25:50;10.50;99.90
48936;DHT22;34745;52.276;10.528;2023-04-01T01:28:33;10.60;99.90
48936;DHT22;34745;52.276;10.528;2023-04-01T01:31:09;10.60;99.90
48936;DHT22;34745;52.276;10.528;2023-04-01T01:33:53;10.60;99.90
48936;DHT22;34745;52.276;10.528;2023-04-01T01:36:28;10.60;99.90
48936;DHT22;34745;52.276;10.528;2023-04-01T01:38:57;10.60;99.90
48936;DHT22;34745;52.276;10.528;2023-04-01T01:41:25;10.50;99.90
48936;DHT22;34745;52.276;10.528;2023-04-01T01:43:55;10.50;99.90
48936;DHT22;34745;52.276;10.528;2023-04-01T01:46:25;10.50;99.90
48936;DHT22;34745;52.276;10.528;2023-04-01T01:48:53;10.40;99.90
48936;DHT22;34745;52.276;10.528;2023-04-01T01:51:22;10.40;99.90
48936;DHT22;34745;52.276;10.528;2023-04-01T01:53:51;10.40;99.90
48936;DHT22;34745;52.276;10.528;2023-04-01T01:56:22;10.40;99.90
48936;DHT22;34745;52.276;10.528;2023-04-01T01:58:52;10.40;99.90
48936;DHT22;34745;52.276;10.528;2023-04-01T02:01:23;10.40;99.90
48936;DHT22;34745;52.276;10.528;2023-04-01T02:03:52;10.40;99.90
48936;DHT22;34745;52.276;10.528;2023-04-01T02:06:22;10.30;99.90
48936;DHT22;34745;52.276;10.528;2023-04-01T02:08:53;10.30;99.90
48936;DHT22;34745;52.276;10.528;2023-04-01T02:11:26;10.30;99.90
48936;DHT22;34745;52.276;10.528;2023-04-01T02:13:55;10.30;99.90
48936;DHT22;34745;52.276;10.528;2023-04-01T02:16:26;10.20;99.90
48936;DHT22;34745;52.276;10.528;2023-04-01T02:18:57;10.20;99.90
48936;DHT22;34745;52.276;10.528;2023-04-01T02:21:29;10.20;99.90
48936;DHT22;34745;52.276;10.528;2023-04-01T02:24:01;10.20;99.90
48936;DHT22;34745;52.276;10.528;2023-04-01T02:26:29;10.10;99.90
48936;DHT22;34745;52.276;10.528;2023-04-01T02:28:57;10.20;99.90
48936;DHT22;34745;52.276;10.528;2023-04-01T02:31:26;10.20;99.90
48936;DHT22;34745;52.276;10.528;2023-04-01T02:33:54;10.10;99.90
48936;DHT22;34745;52.276;10.528;2023-04-01T02:36:21;10.10;99.90
48936;DHT22;34745;52.276;10.528;2023-04-01T02:38:49;10.10;99.90
48936;DHT22;34745;52.276;10.528;2023-04-01T02:41:19;10.10;99.90
48936;DHT22;34745;52.276;10.528;2023-04-01T02:43:46;10.10;99.90
48936;DHT22;34745;52.276;10.528;2023-04-01T02:46:13;10.10;99.90
48936;DHT22;34745;52.276;10.528;2023-04-01T02:48:40;10.10;99.90
48936;DHT22;34745;52.276;10.528;2023-04-01T02:51:08;10.10;99.90
48936;DHT22;34745;52.276;10.528;2023-04-01T02:53:35;10.10;99.90
48936;DHT22;34745;52.276;10.528;2023-04-01T02:56:02;10.10;99.90
48936;DHT22;34745;52.276;10.528;2023-04-01T02:58:31;10.10;99.90
48936;DHT22;34745;52.276;10.528;2023-04-01T03:00:58;10.00;99.90
48936;DHT22;34745;52.276;10.528;2023-04-01T03:03:25;10.10;99.90
48936;DHT22;34745;52.276;10.528;2023-04-01T03:05:52;10.10;99.90
48936;DHT22;34745;52.276;10.528;2023-04-01T03:08:22;10.10;99.90
48936;DHT22;34745;52.276;10.528;2023-04-01T03:10:50;10.10;99.90
48936;DHT22;34745;52.276;10.528;2023-04-01T03:13:17;10.10;99.90
48936;DHT22;34745;52.276;10.528;2023-04-01T03:15:45;10.10;99.90
48936;DHT22;34745;52.276;10.528;2023-04-01T03:18:12;10.10;99.90
48936;DHT22;34745;52.276;10.528;2023-04-01T03:20:39;10.10;99.90
48936;DHT22;34745;52.276;10.528;2023-04-01T03:23:08;10.10;99.90
48936;DHT22;34745;52.276;10.528;2023-04-01T03:25:36;10.00;99.90
48936;DHT22;34745;52.276;10.528;2023-04-01T03:28:17;10.10;99.90
48936;DHT22;34745;52.276;10.528;2023-04-01T03:30:46;10.10;99.90
48936;DHT22;34745;52.276;10.528;2023-04-01T03:33:14;10.10;99.90
48936;DHT22;34745;52.276;10.528;2023-04-01T03:35:49;10.10;99.90
48936;DHT22;34745;52.276;10.528;2023-04-01T03:38:19;10.10;99.90
48936;DHT22;34745;52.276;10.528;2023-04-01T03:40:47;10.10;99.90
48936;DHT22;34745;52.276;10.528;2023-04-01T03:43:15;10.00;99.90
48936;DHT22;34745;52.276;10.528;2023-04-01T03:45:45;10.10;99.90
48936;DHT22;34745;52.276;10.528;2023-04-01T03:48:14;10.10;99.90
48936;DHT22;34745;52.276;10.528;2023-04-01T03:50:41;10.10;99.90
48936;DHT22;34745;52.276;10.528;2023-04-01T03:53:08;10.10;99.90
48936;DHT22;34745;52.276;10.528;2023-04-01T03:55:36;10.10;99.90
48936;DHT22;34745;52.276;10.528;2023-04-01T03:58:05;10.20;99.90
48936;DHT22;34745;52.276;10.528;2023-04-01T04:00:33;10.20;99.90
48936;DHT22;34745;52.276;10.528;2023-04-01T04:03:02;10.10;99.90
48936;DHT22;34745;52.276;10.528;2023-04-01T04:05:29;10.10;99.90
48936;DHT22;34745;52.276;10.528;2023-04-01T04:07:56;10.10;99.90
48936;DHT22;34745;52.276;10.528;2023-04-01T04:10:23;10.10;99.90
48936;DHT22;34745;52.276;10.528;2023-04-01T04:12:52;10.10;99.90
48936;DHT22;34745;52.276;10.528;2023-04-01T04:15:19;10.10;99.90
48936;DHT22;34745;52.276;10.528;2023-04-01T04:17:47;10.10;99.90
48936;DHT22;34745;52.276;10.528;2023-04-01T04:20:15;10.10;99.90
48936;DHT22;34745;52.276;10.528;2023-04-01T04:22:42;10.00;99.90
48936;DHT22;34745;52.276;10.528;2023-04-01T04:25:09;10.00;99.90
48936;DHT22;34745;52.276;10.528;2023-04-01T04:27:37;10.10;99.90
48936;DHT22;34745;52.276;10.528;2023-04-01T04:30:05;10.00;99.90
48936;DHT22;34745;52.276;10.528;2023-04-01T04:32:33;10.00;99.90
48936;DHT22;34745;52.276;10.528;2023-04-01T04:35:00;10.00;99.90
48936;DHT22;34745;52.276;10.528;2023-04-01T04:37:29;10.00;99.90
48936;DHT22;34745;52.276;10.528;2023-04-01T04:39:55;9.90;99.90
48936;DHT22;34745;52.276;10.528;2023-04-01T04:42:23;9.90;99.90
48936;DHT22;34745;52.276;10.528;2023-04-01T04:44:49;9.90;99.90
48936;DHT22;34745;52.276;10.528;2023-04-01T04:47:17;9.90;99.90
48936;DHT22;34745;52.276;10.528;2023-04-01T04:49:44;9.90;99.90
48936;DHT22;34745;52.276;10.528;2023-04-01T04:52:11;9.90;99.90
48936;DHT22;34745;52.276;10.528;2023-04-01T04:54:39;9.90;99.90
48936;DHT22;34745;52.276;10.528;2023-04-01T04:57:06;9.90;99.90
48936;DHT22;34745;52.276;10.528;2023-04-01T04:59:33;9.90;99.90
48936;DHT22;34745;52.276;10.528;2023-04-01T05:02:01;9.90;99.90
48936;DHT22;34745;52.276;10.528;2023-04-01T05:04:28;9.90;99.90
48936;DHT22;34745;52.276;10.528;2023-04-01T05:06:54;9.90;99.90
48936;DHT22;34745;52.276;10.528;2023-04-01T05:09:21;9.90;99.90
48936;DHT22;34745;52.276;10.528;2023-04-01T05:11:50;10.00;99.90
48936;DHT22;34745;52.276;10.528;2023-04-01T05:14:17;9.90;99.90
48936;DHT22;34745;52.276;10.528;2023-04-01T05:16:44;9.90;99.90
48936;DHT22;34745;52.276;10.528;2023-04-01T05:19:11;9.90;99.90
48936;DHT22;34745;52.276;10.528;2023-04-01T05:21:38;9.90;99.90
48936;DHT22;34745;52.276;10.528;2023-04-01T05:24:07;9.90;99.90
48936;DHT22;34745;52.276;10.528;2023-04-01T05:26:35;9.90;99.90
48936;DHT22;34745;52.276;10.528;2023-04-01T05:29:04;9.90;99.90
48936;DHT22;34745;52.276;10.528;2023-04-01T05:31:33;10.00;99.90
48936;DHT22;34745;52.276;10.528;2023-04-01T05:33:59;9.90;99.90
48936;DHT22;34745;52.276;10.528;2023-04-01T05:36:27;10.00;99.90
48936;DHT22;34745;52.276;10.528;2023-04-01T05:38:55;10.00;99.90
48936;DHT22;34745;52.276;10.528;2023-04-01T05:41:22;10.00;99.90
48936;DHT22;34745;52.276;10.528;2023-04-01T05:43:49;10.10;99.90
48936;DHT22;34745;52.276;10.528;2023-04-01T05:46:17;10.00;99.90
48936;DHT22;34745;52.276;10.528;2023-04-01T05:48:44;10.00;99.90
48936;DHT22;34745;52.276;10.528;2023-04-01T05:51:13;10.10;99.90
48936;DHT22;34745;52.276;10.528;2023-04-01T05:53:40;10.10;99.90
48936;DHT22;34745;52.276;10.528;2023-04-01T05:56:07;10.10;99.90
48936;DHT22;34745;52.276;10.528;2023-04-01T05:58:36;10.10;99.90
48936;DHT22;34745;52.276;10.528;2023-04-01T06:01:04;10.20;99.90
48936;DHT22;34745;52.276;10.528;2023-04-01T06:03:41;10.20;99.90
48936;DHT22;34745;52.276;10.528;2023-04-01T06:06:13;10.10;99.90
48936;DHT22;34745;52.276;10.528;2023-04-01T06:08:41;10.20;99.90
48936;DHT22;34745;52.276;10.528;2023-04-01T06:11:19;10.20;99.90
48936;DHT22;34745;52.276;10.528;2023-04-01T06:14:00;10.20;99.90
48936;DHT22;34745;52.276;10.528;2023-04-01T06:16:43;10.20;99.90
48936;DHT22;34745;52.276;10.528;2023-04-01T06:19:24;10.20;99.90
48936;DHT22;34745;52.276;10.528;2023-04-01T06:22:16;10.20;99.90
48936;DHT22;34745;52.276;10.528;2023-04-01T06:27:58;10.20;99.90
48936;DHT22;34745;52.276;10.528;2023-04-01T06:30:40;10.30;99.90
48936;DHT22;34745;52.276;10.528;2023-04-01T06:33:19;10.40;99.90
48936;DHT22;34745;52.276;10.528;2023-04-01T06:36:15;10.40;99.90
48936;DHT22;34745;52.276;10.528;2023-04-01T06:39:01;10.60;99.90
48936;DHT22;34745;52.276;10.528;2023-04-01T06:44:27;10.60;99.90
48936;DHT22;34745;52.276;10.528;2023-04-01T06:47:04;10.60;99.90
48936;DHT22;34745;52.276;10.528;2023-04-01T06:49:44;10.70;99.90
48936;DHT22;34745;52.276;10.528;2023-04-01T06:52:23;10.70;99.90
48936;DHT22;34745;52.276;10.528;2023-04-01T06:54:57;10.90;99.90
48936;DHT22;34745;52.276;10.528;2023-04-01T06:57:31;10.90;99.90
48936;DHT22;34745;52.276;10.528;2023-04-01T07:00:02;11.00;99.90
48936;DHT22;34745;52.276;10.528;2023-04-01T07:02:36;11.10;99.90
48936;DHT22;34745;52.276;10.528;2023-04-01T07:05:07;11.10;99.90
48936;DHT22;34745;52.276;10.528;2023-04-01T07:07:39;11.10;99.90
48936;DHT22;34745;52.276;10.528;2023-04-01T07:10:14;11.10;99.90
48936;DHT22;34745;52.276;10.528;2023-04-01T07:12:47;11.10;99.90
48936;DHT22;34745;52.276;10.528;2023-04-01T07:15:18;11.20;99.90
48936;DHT22;34745;52.276;10.528;2023-04-01T07:17:52;11.10;99.90
48936;DHT22;34745;52.276;10.528;2023-04-01T07:20:23;11.10;99.90
48936;DHT22;34745;52.276;10.528;2023-04-01T07:22:56;11.20;99.90
48936;DHT22;34745;52.276;10.528;2023-04-01T07:25:27;11.20;99.90
48936;DHT22;34745;52.276;10.528;2023-04-01T07:27:59;11.30;99.90
48936;DHT22;34745;52.276;10.528;2023-04-01T07:30:30;11.40;99.90
48936;DHT22;34745;52.276;10.528;2023-04-01T07:33:04;11.50;99.90
48936;DHT22;34745;52.276;10.528;2023-04-01T07:35:36;11.60;99.90
48936;DHT22;34745;52.276;10.528;2023-04-01T07:38:15;11.80;99.90
48936;DHT22;34745;52.276;10.528;2023-04-01T07:40:49;11.90;99.90
48936;DHT22;34745;52.276;10.528;2023-04-01T07:43:40;12.00;99.90
48936;DHT22;34745;52.276;10.528;2023-04-01T07:46:19;12.20;99.90
48936;DHT22;34745;52.276;10.528;2023-04-01T07:48:53;12.30;99.90
48936;DHT22;34745;52.276;10.528;2023-04-01T07:51:27;12.50;99.90
48936;DHT22;34745;52.276;10.528;2023-04-01T07:54:05;12.30;99.90
48936;DHT22;34745;52.276;10.528;2023-04-01T07:56:38;12.20;99.90
48936;DHT22;34745;52.276;10.528;2023-04-01T07:59:11;12.20;99.90
48936;DHT22;34745;52.276;10.528;2023-04-01T08:01:48;12.20;99.90
48936;DHT22;34745;52.276;10.528;2023-04-01T08:04:28;12.20;99.90
48936;DHT22;34745;52.276;10.528;2023-04-01T08:07:06;12.40;99.90
48936;DHT22;34745;52.276;10.528;2023-04-01T08:09:41;12.40;99.90
48936;DHT22;34745;52.276;10.528;2023-04-01T08:12:20;12.30;99.90
48936;DHT22;34745;52.276;10.528;2023-04-01T08:14:56;12.20;99.90
48936;DHT22;34745;52.276;10.528;2023-04-01T08:17:31;12.10;99.90
48936;DHT22;34745;52.276;10.528;2023-04-01T08:20:14;12.20;99.90
48936;DHT22;34745;52.276;10.528;2023-04-01T08:22:49;12.10;99.90
48936;DHT22;34745;52.276;10.528;2023-04-01T08:25:21;12.10;99.90
48936;DHT22;34745;52.276;10.528;2023-04-01T08:27:55;11.90;99.90
48936;DHT22;34745;52.276;10.528;2023-04-01T08:30:24;11.70;99.90
48936;DHT22;34745;52.276;10.528;2023-04-01T08:32:56;11.70;99.90
48936;DHT22;34745;52.276;10.528;2023-04-01T08:35:28;11.50;99.90
48936;DHT22;34745;52.276;10.528;2023-04-01T08:38:01;11.60;99.90
48936;DHT22;34745;52.276;10.528;2023-04-01T08:40:56;11.60;99.90
48936;DHT22;34745;52.276;10.528;2023-04-01T08:43:41;11.70;99.90
48936;DHT22;34745;52.276;10.528;2023-04-01T08:46:21;11.80;99.90
48936;DHT22;34745;52.276;10.528;2023-04-01T08:49:14;11.80;99.90
48936;DHT22;34745;52.276;10.528;2023-04-01T08:52:14;11.90;99.90
48936;DHT22;34745;52.276;10.528;2023-04-01T08:55:14;12.20;99.90
48936;DHT22;34745;52.276;10.528;2023-04-01T08:57:58;12.50;99.90
48936;DHT22;34745;52.276;10.528;2023-04-01T09:00:31;12.70;99.90
48936;DHT22;34745;52.276;10.528;2023-04-01T09:03:15;12.90;99.90
48936;DHT22;34745;52.276;10.528;2023-04-01T09:06:11;12.90;99.90
48936;DHT22;34745;52.276;10.528;2023-04-01T09:08:52;13.10;99.90
48936;DHT22;34745;52.276;10.528;2023-04-01T09:11:33;13.10;99.90
48936;DHT22;34745;52.276;10.528;2023-04-01T09:14:33;12.80;99.90
48936;DHT22;34745;52.276;10.528;2023-04-01T09:17:26;12.50;60.30
48936;DHT22;34745;52.276;10.528;2023-04-01T09:20:31;12.40;85.80
48936;DHT22;34745;52.276;10.528;2023-04-01T09:23:15;12.60;86.00
48936;DHT22;34745;52.276;10.528;2023-04-01T09:26:03;12.80;86.20
48936;DHT22;34745;52.276;10.528;2023-04-01T09:28:42;12.90;67.90
48936;DHT22;34745;52.276;10.528;2023-04-01T09:31:31;13.20;69.80
48936;DHT22;34745;52.276;10.528;2023-04-01T09:34:25;13.50;33.60
48936;DHT22;34745;52.276;10.528;2023-04-01T09:37:06;13.30;29.90
48936;DHT22;34745;52.276;10.528;2023-04-01T09:39:36;13.50;1.00
48936;DHT22;34745;52.276;10.528;2023-04-01T09:42:15;13.50;1.00
48936;DHT22;34745;52.276;10.528;2023-04-01T09:44:50;13.60;1.00
48936;DHT22;34745;52.276;10.528;2023-04-01T09:47:37;13.40;1.00
48936;DHT22;34745;52.276;10.528;2023-04-01T09:50:27;13.20;1.00
48936;DHT22;34745;52.276;10.528;2023-04-01T09:53:05;13.10;1.00
48936;DHT22;34745;52.276;10.528;2023-04-01T09:58:45;13.00;1.00
48936;DHT22;34745;52.276;10.528;2023-04-01T10:01:35;13.10;5.50
48936;DHT22;34745;52.276;10.528;2023-04-01T10:10:47;12.90;1.00
48936;DHT22;34745;52.276;10.528;2023-04-01T10:13:46;12.90;8.10
48936;DHT22;34745;52.276;10.528;2023-04-01T10:16:31;12.90;1.00
48936;DHT22;34745;52.276;10.528;2023-04-01T10:25:36;12.70;7.30
48936;DHT22;34745;52.276;10.528;2023-04-01T10:28:43;12.60;34.20
48936;DHT22;34745;52.276;10.528;2023-04-01T10:34:55;12.90;75.40
48936;DHT22;34745;52.276;10.528;2023-04-01T10:37:41;13.10;73.10
48936;DHT22;34745;52.276;10.528;2023-04-01T10:40:23;13.20;9.50
48936;DHT22;34745;52.276;10.528;2023-04-01T10:49:46;13.00;5.80
48936;DHT22;34745;52.276;10.528;2023-04-01T10:56:00;12.90;4.90
48936;DHT22;34745;52.276;10.528;2023-04-01T11:05:06;13.00;35.30
48936;DHT22;34745;52.276;10.528;2023-04-01T11:11:11;12.80;41.80
48936;DHT22;34745;52.276;10.528;2023-04-01T11:14:09;12.60;10.70
48936;DHT22;34745;52.276;10.528;2023-04-01T11:17:17;12.40;12.40
48936;DHT22;34745;52.276;10.528;2023-04-01T11:20:19;12.50;15.00
48936;DHT22;34745;52.276;10.528;2023-04-01T11:23:17;12.70;28.60
48936;DHT22;34745;52.276;10.528;2023-04-01T11:26:07;12.80;17.00
48936;DHT22;34745;52.276;10.528;2023-04-01T11:31:50;12.80;14.60
48936;DHT22;34745;52.276;10.528;2023-04-01T11:34:37;12.90;3.60
48936;DHT22;34745;52.276;10.528;2023-04-01T11:37:18;12.90;1.00
48936;DHT22;34745;52.276;10.528;2023-04-01T11:40:02;12.80;1.00
48936;DHT22;34745;52.276;10.528;2023-04-01T11:42:40;12.70;9.70
48936;DHT22;34745;52.276;10.528;2023-04-01T11:45:21;12.70;13.20
48936;DHT22;34745;52.276;10.528;2023-04-01T11:48:08;12.70;13.20
48936;DHT22;34745;52.276;10.528;2023-04-01T11:50:50;12.70;18.20
48936;DHT22;34745;52.276;10.528;2023-04-01T11:53:30;12.70;25.20
48936;DHT22;34745;52.276;10.528;2023-04-01T11:56:09;12.80;29.20
48936;DHT22;34745;52.276;10.528;2023-04-01T11:58:53;12.80;34.50
48936;DHT22;34745;52.276;10.528;2023-04-01T12:01:29;12.80;26.20
48936;DHT22;34745;52.276;10.528;2023-04-01T12:04:34;12.80;20.50
48936;DHT22;34745;52.276;10.528;2023-04-01T12:07:13;12.90;38.90
48936;DHT22;34745;52.276;10.528;2023-04-01T12:09:49;13.00;63.50
48936;DHT22;34745;52.276;10.528;2023-04-01T12:12:27;12.90;72.60
48936;DHT22;34745;52.276;10.528;2023-04-01T12:15:05;12.90;83.20
48936;DHT22;34745;52.276;10.528;2023-04-01T12:17:44;12.90;93.60
48936;DHT22;34745;52.276;10.528;2023-04-01T12:20:34;12.90;99.90
48936;DHT22;34745;52.276;10.528;2023-04-01T12:23:13;12.70;99.90
48936;DHT22;34745;52.276;10.528;2023-04-01T12:26:03;12.80;99.90
48936;DHT22;34745;52.276;10.528;2023-04-01T12:28:44;12.80;99.90
48936;DHT22;34745;52.276;10.528;2023-04-01T12:31:23;12.90;99.90
48936;DHT22;34745;52.276;10.528;2023-04-01T12:34:13;13.10;99.90
48936;DHT22;34745;52.276;10.528;2023-04-01T12:36:52;13.30;95.10
48936;DHT22;34745;52.276;10.528;2023-04-01T12:39:40;13.40;78.80
48936;DHT22;34745;52.276;10.528;2023-04-01T12:42:20;13.50;53.50
48936;DHT22;34745;52.276;10.528;2023-04-01T12:45:05;13.50;44.20
48936;DHT22;34745;52.276;10.528;2023-04-01T12:48:08;13.50;39.80
48936;DHT22;34745;52.276;10.528;2023-04-01T12:51:04;13.60;43.20
48936;DHT22;34745;52.276;10.528;2023-04-01T12:53:47;13.50;51.40
48936;DHT22;34745;52.276;10.528;2023-04-01T12:56:32;13.60;61.30
48936;DHT22;34745;52.276;10.528;2023-04-01T13:02:12;13.60;63.70
48936;DHT22;34745;52.276;10.528;2023-04-01T13:04:55;13.50;80.70
48936;DHT22;34745;52.276;10.528;2023-04-01T13:07:42;13.50;91.20
48936;DHT22;34745;52.276;10.528;2023-04-01T13:10:20;13.40;96.40
48936;DHT22;34745;52.276;10.528;2023-04-01T13:13:05;13.40;99.90
48936;DHT22;34745;52.276;10.528;2023-04-01T13:15:43;13.30;99.90
48936;DHT22;34745;52.276;10.528;2023-04-01T13:18:20;13.20;99.90
48936;DHT22;34745;52.276;10.528;2023-04-01T13:20:53;13.20;99.90
48936;DHT22;34745;52.276;10.528;2023-04-01T13:23:33;13.20;99.90
48936;DHT22;34745;52.276;10.528;2023-04-01T13:26:08;13.20;99.90
48936;DHT22;34745;52.276;10.528;2023-04-01T13:28:44;13.20;99.90
48936;DHT22;34745;52.276;10.528;2023-04-01T13:31:26;13.10;99.90
48936;DHT22;34745;52.276;10.528;2023-04-01T13:34:06;13.20;99.90
48936;DHT22;34745;52.276;10.528;2023-04-01T13:36:44;13.20;99.90
48936;DHT22;34745;52.276;10.528;2023-04-01T13:39:33;13.30;99.90
48936;DHT22;34745;52.276;10.528;2023-04-01T13:42:14;13.20;99.90
48936;DHT22;34745;52.276;10.528;2023-04-01T13:44:47;13.10;99.90
48936;DHT22;34745;52.276;10.528;2023-04-01T13:50:31;12.70;99.90
48936;DHT22;34745;52.276;10.528;2023-04-01T13:56:08;12.30;99.90
48936;DHT22;34745;52.276;10.528;2023-04-01T14:01:47;12.00;99.90
48936;DHT22;34745;52.276;10.528;2023-04-01T14:04:47;11.90;99.90
48936;DHT22;34745;52.276;10.528;2023-04-01T14:07:37;11.80;99.90
48936;DHT22;34745;52.276;10.528;2023-04-01T14:10:16;11.80;99.90
48936;DHT22;34745;52.276;10.528;2023-04-01T14:12:51;11.60;99.90
48936;DHT22;34745;52.276;10.528;2023-04-01T14:15:36;11.70;99.90
48936;DHT22;34745;52.276;10.528;2023-04-01T14:18:17;11.50;99.90
48936;DHT22;34745;52.276;10.528;2023-04-01T14:20:55;11.60;99.90
48936;DHT22;34745;52.276;10.528;2023-04-01T14:23:41;11.50;99.90
48936;DHT22;34745;52.276;10.528;2023-04-01T14:26:30;11.50;99.90
48936;DHT22;34745;52.276;10.528;2023-04-01T14:29:14;11.40;99.90
48936;DHT22;34745;52.276;10.528;2023-04-01T14:31:55;11.30;99.90
48936;DHT22;34745;52.276;10.528;2023-04-01T14:34:36;11.20;99.90
48936;DHT22;34745;52.276;10.528;2023-04-01T14:37:23;11.10;99.90
48936;DHT22;34745;52.276;10.528;2023-04-01T14:40:15;11.00;99.90
48936;DHT22;34745;52.276;10.528;2023-04-01T14:42:59;10.80;99.90
48936;DHT22;34745;52.276;10.528;2023-04-01T14:45:46;10.70;99.90
48936;DHT22;34745;52.276;10.528;2023-04-01T14:48:23;10.70;99.90
48936;DHT22;34745;52.276;10.528;2023-04-01T14:50:54;10.60;99.90
48936;DHT22;34745;52.276;10.528;2023-04-01T14:53:30;10.60;99.90
48936;DHT22;34745;52.276;10.528;2023-04-01T14:55:59;10.50;99.90
48936;DHT22;34745;52.276;10.528;2023-04-01T14:58:43;10.50;99.90
48936;DHT22;34745;52.276;10.528;2023-04-01T15:01:25;10.40;99.90
48936;DHT22;34745;52.276;10.528;2023-04-01T15:04:04;10.40;99.90
48936;DHT22;34745;52.276;10.528;2023-04-01T15:06:46;10.40;99.90
48936;DHT22;34745;52.276;10.528;2023-04-01T15:09:24;10.20;99.90
48936;DHT22;34745;52.276;10.528;2023-04-01T15:12:03;10.20;99.90
48936;DHT22;34745;52.276;10.528;2023-04-01T15:15:01;10.20;99.90
48936;DHT22;34745;52.276;10.528;2023-04-01T15:17:46;10.10;99.90
48936;DHT22;34745;52.276;10.528;2023-04-01T15:20:30;10.10;99.90
48936;DHT22;34745;52.276;10.528;2023-04-01T15:23:09;10.10;99.90
48936;DHT22;34745;52.276;10.528;2023-04-01T15:25:53;10.10;99.90
48936;DHT22;34745;52.276;10.528;2023-04-01T15:28:30;10.10;99.90
48936;DHT22;34745;52.276;10.528;2023-04-01T15:31:02;10.00;99.90
48936;DHT22;34745;52.276;10.528;2023-04-01T15:33:42;10.00;99.90
48936;DHT22;34745;52.276;10.528;2023-04-01T15:36:22;10.00;99.90
48936;DHT22;34745;52.276;10.528;2023-04-01T15:38:52;10.00;99.90
48936;DHT22;34745;52.276;10.528;2023-04-01T15:41:24;10.00;99.90
48936;DHT22;34745;52.276;10.528;2023-04-01T15:43:55;9.90;99.90
48936;DHT22;34745;52.276;10.528;2023-04-01T15:46:44;9.90;99.90
48936;DHT22;34745;52.276;10.528;2023-04-01T15:49:20;9.80;99.90
48936;DHT22;34745;52.276;10.528;2023-04-01T15:52:07;9.80;99.90
48936;DHT22;34745;52.276;10.528;2023-04-01T15:55:18;9.70;99.90
48936;DHT22;34745;52.276;10.528;2023-04-01T15:58:01;9.70;99.90
48936;DHT22;34745;52.276;10.528;2023-04-01T16:00:31;9.60;99.90
48936;DHT22;34745;52.276;10.528;2023-04-01T16:03:16;9.60;99.90
48936;DHT22;34745;52.276;10.528;2023-04-01T16:08:58;9.40;99.90
48936;DHT22;34745;52.276;10.528;2023-04-01T16:11:39;9.40;99.90
48936;DHT22;34745;52.276;10.528;2023-04-01T16:14:23;9.30;99.90
48936;DHT22;34745;52.276;10.528;2023-04-01T16:17:01;9.30;99.90
48936;DHT22;34745;52.276;10.528;2023-04-01T16:19:41;9.30;99.90
48936;DHT22;34745;52.276;10.528;2023-04-01T16:22:16;9.20;99.90
48936;DHT22;34745;52.276;10.528;2023-04-01T16:24:50;9.20;99.90
48936;DHT22;34745;52.276;10.528;2023-04-01T16:27:26;9.20;99.90
48936;DHT22;34745;52.276;10.528;2023-04-01T16:30:00;9.10;99.90
48936;DHT22;34745;52.276;10.528;2023-04-01T16:32:40;9.10;99.90
48936;DHT22;34745;52.276;10.528;2023-04-01T16:35:23;9.10;99.90
48936;DHT22;34745;52.276;10.528;2023-04-01T16:37:54;9.10;99.90
48936;DHT22;34745;52.276;10.528;2023-04-01T16:40:32;9.00;99.90
48936;DHT22;34745;52.276;10.528;2023-04-01T16:43:10;9.00;99.90
48936;DHT22;34745;52.276;10.528;2023-04-01T16:45:44;8.90;99.90
48936;DHT22;34745;52.276;10.528;2023-04-01T16:48:18;8.80;99.90
48936;DHT22;34745;52.276;10.528;2023-04-01T16:50:56;8.80;99.90
48936;DHT22;34745;52.276;10.528;2023-04-01T16:53:36;8.80;99.90
48936;DHT22;34745;52.276;10.528;2023-04-01T16:56:12;8.80;99.90
48936;DHT22;34745;52.276;10.528;2023-04-01T16:58:43;8.70;99.90
48936;DHT22;34745;52.276;10.528;2023-04-01T17:01:21;8.70;99.90
48936;DHT22;34745;52.276;10.528;2023-04-01T17:03:52;8.60;99.90
48936;DHT22;34745;52.276;10.528;2023-04-01T17:06:28;8.70;99.90
48936;DHT22;34745;52.276;10.528;2023-04-01T17:09:25;8.60;99.90
48936;DHT22;34745;52.276;10.528;2023-04-01T17:12:00;8.60;99.90
48936;DHT22;34745;52.276;10.528;2023-04-01T17:14:35;8.50;99.90
48936;DHT22;34745;52.276;10.528;2023-04-01T17:17:18;8.50;99.90
48936;DHT22;34745;52.276;10.528;2023-04-01T17:20:14;8.50;99.90
48936;DHT22;34745;52.276;10.528;2023-04-01T17:22:52;8.40;99.90
48936;DHT22;34745;52.276;10.528;2023-04-01T17:25:37;8.40;99.90